createdAt,value
2022-11-05T00:01:32.579Z,60.56
2022-11-05T00:04:26.754Z,57.52
2022-11-05T00:07:29.225Z,59.11
2022-11-05T00:10:06.180Z,57.72
2022-11-05T00:13:10.244Z,58.50
2022-11-05T00:15:56.124Z,57.03
2022-11-05T00:18:23.342Z,57.79
2022-11-05T00:20:52.549Z,56.64
2022-11-05T00:23:40.966Z,58.31
2022-11-05T00:26:11.541Z,56.67
2022-11-05T00:28:44.260Z,59.57
2022-11-05T00:31:13.480Z,58.23
2022-11-05T00:33:44.530Z,60.28
2022-11-05T00:36:11.723Z,56.82
2022-11-05T00:38:38.438Z,57.15
2022-11-05T00:41:09.366Z,59.08
2022-11-05T00:43:58.000Z,57.11
2022-11-05T00:46:24.809Z,58.45
2022-11-05T00:49:10.314Z,58.01
2022-11-05T00:51:40.608Z,58.86
2022-11-05T00:54:07.313Z,58.02
2022-11-05T00:56:38.533Z,58.47
2022-11-05T00:59:08.063Z,59.72
2022-11-05T01:01:34.794Z,59.00
2022-11-05T01:04:01.635Z,57.73
2022-11-05T01:06:30.823Z,58.63
2022-11-05T01:08:57.676Z,58.49
2022-11-05T01:11:33.722Z,59.18
2022-11-05T01:14:08.239Z,58.70
2022-11-05T01:16:35.460Z,62.09
2022-11-05T01:19:03.175Z,58.46
2022-11-05T01:21:29.817Z,56.85
2022-11-05T01:23:56.651Z,57.97
2022-11-05T01:26:23.749Z,58.06
2022-11-05T01:28:53.202Z,57.65
2022-11-05T01:31:20.200Z,59.65
2022-11-05T01:33:48.335Z,58.75
2022-11-05T01:36:15.152Z,59.21
2022-11-05T01:38:43.851Z,58.38
2022-11-05T01:41:13.388Z,60.13
2022-11-05T01:43:53.065Z,58.63
2022-11-05T01:46:29.022Z,60.54
2022-11-05T01:49:22.178Z,58.71
2022-11-05T01:51:49.309Z,59.92
2022-11-05T01:54:21.072Z,60.11
2022-11-05T01:56:54.142Z,59.28
2022-11-05T01:59:33.084Z,59.19
2022-11-05T02:02:02.354Z,57.75
2022-11-05T02:04:38.583Z,60.07
2022-11-05T02:07:08.181Z,59.05
2022-11-05T02:09:50.099Z,58.27
2022-11-05T02:12:17.968Z,60.41
2022-11-05T02:14:44.535Z,58.05
2022-11-05T02:17:38.921Z,59.44
2022-11-05T02:20:33.623Z,57.33
2022-11-05T02:23:09.936Z,59.65
2022-11-05T02:25:58.779Z,59.83
2022-11-05T02:28:40.572Z,60.89
2022-11-05T02:31:19.818Z,59.37
2022-11-05T02:33:57.143Z,58.60
2022-11-05T02:37:02.578Z,60.44
2022-11-05T02:40:22.180Z,62.30
2022-11-05T02:43:05.516Z,62.37
2022-11-05T02:45:48.447Z,57.31
2022-11-05T02:48:44.353Z,59.45
2022-11-05T02:51:40.632Z,58.89
2022-11-05T02:54:29.061Z,58.46
2022-11-05T02:57:03.145Z,57.53
2022-11-05T02:59:30.610Z,60.98
2022-11-05T03:02:02.463Z,56.72
2022-11-05T03:04:32.677Z,58.73
2022-11-05T03:07:01.009Z,61.88
2022-11-05T03:10:10.430Z,58.71
2022-11-05T03:12:51.172Z,62.70
2022-11-05T03:15:56.731Z,60.85
2022-11-05T03:18:32.579Z,57.94
2022-11-05T03:21:05.786Z,60.10
2022-11-05T03:23:38.488Z,59.19
2022-11-05T03:26:17.695Z,58.09
2022-11-05T03:28:59.930Z,60.80
2022-11-05T03:31:34.490Z,59.91
2022-11-05T03:34:04.537Z,59.20
2022-11-05T03:36:43.073Z,59.38
2022-11-05T03:39:19.345Z,61.22
2022-11-05T03:41:51.153Z,61.03
2022-11-05T03:44:26.501Z,60.55
2022-11-05T03:47:11.758Z,60.85
2022-11-05T03:50:40.025Z,60.14
2022-11-05T03:53:16.571Z,59.45
2022-11-05T03:56:13.661Z,61.52
2022-11-05T03:58:48.540Z,62.13
2022-11-05T04:01:18.351Z,60.58
2022-11-05T04:03:48.255Z,60.78
2022-11-05T04:06:33.534Z,60.83
2022-11-05T04:09:23.314Z,60.83
2022-11-05T04:12:14.541Z,60.47
2022-11-05T04:14:44.774Z,61.97
2022-11-05T04:17:12.561Z,64.52
2022-11-05T04:19:59.880Z,61.09
2022-11-05T04:23:01.064Z,61.08
2022-11-05T04:25:27.729Z,63.48
2022-11-05T04:27:59.747Z,62.08
2022-11-05T04:30:32.844Z,61.42
2022-11-05T04:33:05.654Z,60.90
2022-11-05T04:35:39.449Z,61.17
2022-11-05T04:38:11.793Z,61.94
2022-11-05T04:40:43.957Z,60.53
2022-11-05T04:43:19.925Z,61.01
2022-11-05T04:45:46.976Z,61.90
2022-11-05T04:48:14.060Z,61.41
2022-11-05T04:50:40.817Z,61.21
2022-11-05T04:53:07.585Z,61.02
2022-11-05T04:55:35.952Z,62.87
2022-11-05T04:58:02.604Z,60.61
2022-11-05T05:00:29.405Z,61.18
2022-11-05T05:02:56.985Z,62.24
2022-11-05T05:05:24.178Z,60.35
2022-11-05T05:07:50.914Z,62.84
2022-11-05T05:10:17.827Z,61.05
2022-11-05T05:12:46.859Z,62.06
2022-11-05T05:15:16.567Z,61.52
2022-11-05T05:17:43.300Z,61.55
2022-11-05T05:20:32.699Z,59.69
2022-11-05T05:22:59.309Z,58.70
2022-11-05T05:25:26.051Z,60.99
2022-11-05T05:27:55.167Z,60.58
2022-11-05T05:30:22.128Z,59.53
2022-11-05T05:32:48.911Z,59.56
2022-11-05T05:35:18.372Z,59.08
2022-11-05T05:37:49.761Z,61.13
2022-11-05T05:40:19.162Z,59.16
2022-11-05T05:42:48.920Z,60.99
2022-11-05T05:45:18.340Z,58.32
2022-11-05T05:47:45.392Z,61.03
2022-11-05T05:50:12.340Z,58.99
2022-11-05T05:52:41.747Z,59.23
2022-11-05T05:55:13.574Z,59.97
2022-11-05T05:57:41.519Z,59.46
2022-11-05T06:00:11.379Z,59.10
2022-11-05T06:02:38.353Z,60.09
2022-11-05T06:05:05.694Z,59.45
2022-11-05T06:07:37.292Z,60.77
2022-11-05T06:10:06.329Z,62.92
2022-11-05T06:12:41.438Z,58.27
2022-11-05T06:15:08.484Z,58.69
2022-11-05T06:17:39.451Z,58.66
2022-11-05T06:20:10.403Z,59.98
2022-11-05T06:22:41.010Z,59.93
2022-11-05T06:25:08.660Z,57.48
2022-11-05T06:27:38.229Z,57.76
2022-11-05T06:30:05.249Z,57.72
2022-11-05T06:32:32.203Z,57.94
2022-11-05T06:35:02.057Z,57.92
2022-11-05T06:37:28.841Z,59.69
2022-11-05T06:40:08.617Z,58.41
2022-11-05T06:42:40.996Z,59.78
2022-11-05T06:45:10.641Z,61.25
2022-11-05T06:47:40.543Z,57.10
2022-11-05T06:50:07.498Z,56.76
2022-11-05T06:52:39.893Z,55.49
2022-11-05T06:55:11.165Z,57.95
2022-11-05T06:57:40.663Z,59.28
2022-11-05T07:00:08.447Z,56.69
2022-11-05T07:02:35.215Z,56.60
2022-11-05T07:05:05.160Z,58.42
2022-11-05T07:07:34.397Z,57.22
2022-11-05T07:10:05.604Z,57.51
2022-11-05T07:12:32.400Z,57.48
2022-11-05T07:15:01.099Z,56.62
2022-11-05T07:17:27.868Z,58.11
2022-11-05T07:19:56.539Z,57.80
2022-11-05T07:22:23.701Z,55.91
2022-11-05T07:24:53.098Z,55.89
2022-11-05T07:27:19.862Z,56.37
2022-11-05T07:29:53.416Z,59.22
2022-11-05T07:32:20.091Z,57.53
2022-11-05T07:34:54.809Z,55.31
2022-11-05T07:37:26.104Z,56.65
2022-11-05T07:39:52.887Z,54.58
2022-11-05T07:42:19.674Z,56.07
2022-11-05T07:44:55.357Z,55.24
2022-11-05T07:47:22.031Z,56.51
2022-11-05T07:49:48.763Z,54.29
2022-11-05T07:52:17.937Z,54.52
2022-11-05T07:54:44.902Z,54.35
2022-11-05T07:57:11.750Z,54.03
2022-11-05T07:59:48.350Z,53.42
2022-11-05T08:02:15.314Z,55.54
2022-11-05T08:04:45.529Z,54.39
2022-11-05T08:07:15.667Z,53.81
2022-11-05T08:09:45.216Z,53.57
2022-11-05T08:12:12.631Z,53.78
2022-11-05T08:14:47.300Z,55.41
2022-11-05T08:17:18.329Z,53.53
2022-11-05T08:19:45.293Z,54.18
2022-11-05T08:22:11.968Z,53.11
2022-11-05T08:24:38.784Z,54.03
2022-11-05T08:27:05.519Z,54.62
2022-11-05T08:29:32.179Z,53.74
2022-11-05T08:32:01.929Z,52.92
2022-11-05T08:34:28.626Z,51.25
2022-11-05T08:37:05.809Z,51.20
2022-11-05T08:39:36.276Z,53.12
2022-11-05T08:42:10.869Z,50.78
2022-11-05T08:44:38.323Z,52.18
2022-11-05T08:47:05.464Z,53.18
2022-11-05T08:49:34.649Z,52.45
2022-11-05T08:52:04.571Z,52.25
2022-11-05T08:54:31.301Z,53.01
2022-11-05T08:57:00.963Z,50.91
2022-11-05T08:59:31.548Z,53.61
2022-11-05T09:02:11.762Z,53.95
2022-11-05T09:04:41.240Z,51.45
2022-11-05T09:07:10.743Z,51.31
2022-11-05T09:09:37.612Z,50.65
2022-11-05T09:12:12.107Z,51.46
2022-11-05T09:14:39.734Z,50.89
2022-11-05T09:17:23.061Z,52.80
2022-11-05T09:19:53.627Z,53.00
2022-11-05T09:22:20.293Z,53.70
2022-11-05T09:24:47.173Z,52.71
2022-11-05T09:27:14.787Z,52.26
2022-11-05T09:29:46.437Z,50.13
2022-11-05T09:32:13.379Z,49.37
2022-11-05T09:34:45.096Z,50.58
2022-11-05T09:37:15.492Z,49.44
2022-11-05T09:39:44.942Z,49.41
2022-11-05T09:42:16.517Z,53.41
2022-11-05T09:45:00.557Z,48.92
2022-11-05T09:47:41.744Z,49.43
2022-11-05T09:50:21.079Z,50.18
2022-11-05T09:53:04.837Z,52.05
2022-11-05T09:55:41.584Z,51.77
2022-11-05T09:58:32.997Z,48.46
2022-11-05T10:01:00.015Z,49.94
2022-11-05T10:03:29.627Z,47.38
2022-11-05T10:06:10.571Z,46.08
2022-11-05T10:08:44.899Z,48.83
2022-11-05T10:11:23.885Z,51.36
2022-11-05T10:14:03.223Z,48.65
2022-11-05T10:16:37.055Z,46.28
2022-11-05T10:19:34.195Z,51.17
2022-11-05T10:22:11.551Z,45.41
2022-11-05T10:24:43.693Z,47.45
2022-11-05T10:27:17.363Z,48.19
2022-11-05T10:29:49.270Z,42.04
2022-11-05T10:32:37.659Z,43.92
2022-11-05T10:35:06.669Z,47.91
2022-11-05T10:37:41.204Z,48.79
2022-11-05T10:40:22.684Z,45.28
2022-11-05T10:43:21.736Z,47.81
2022-11-05T10:46:10.377Z,42.08
2022-11-05T10:48:58.639Z,43.65
2022-11-05T10:51:26.037Z,44.01
2022-11-05T10:54:01.606Z,40.50
2022-11-05T10:56:35.572Z,42.26
2022-11-05T10:59:20.857Z,47.25
2022-11-05T11:01:56.551Z,43.15
2022-11-05T11:04:30.355Z,40.39
2022-11-05T11:07:00.553Z,44.49
2022-11-05T11:09:30.302Z,42.88
2022-11-05T11:12:16.514Z,46.37
2022-11-05T11:14:43.498Z,40.09
2022-11-05T11:17:31.665Z,38.59
2022-11-05T11:20:31.346Z,42.98
2022-11-05T11:23:16.476Z,45.82
2022-11-05T11:26:02.086Z,40.33
2022-11-05T11:28:36.323Z,39.52
2022-11-05T11:31:16.672Z,40.82
2022-11-05T11:33:47.926Z,41.19
2022-11-05T11:36:24.367Z,41.90
2022-11-05T11:38:51.355Z,45.97
2022-11-05T11:41:33.255Z,40.72
2022-11-05T11:44:15.338Z,45.21
2022-11-05T11:46:56.406Z,42.30
2022-11-05T11:49:49.485Z,38.87
2022-11-05T11:52:30.231Z,45.75
2022-11-05T11:55:15.711Z,42.36
2022-11-05T11:57:48.774Z,37.85
2022-11-05T12:00:17.260Z,43.40
2022-11-05T12:02:54.789Z,40.92
2022-11-05T12:05:33.623Z,47.70
2022-11-05T12:08:27.742Z,44.60
2022-11-05T12:11:18.736Z,40.19
2022-11-05T12:14:13.581Z,37.99
2022-11-05T12:16:49.825Z,43.59
2022-11-05T12:19:55.092Z,37.18
2022-11-05T12:22:48.499Z,46.99
2022-11-05T12:25:33.289Z,44.67
2022-11-05T12:28:09.056Z,42.65
2022-11-05T12:30:43.592Z,41.03
2022-11-05T12:33:40.022Z,46.31
2022-11-05T12:36:19.113Z,40.28
2022-11-05T12:39:08.885Z,47.71
2022-11-05T12:42:05.642Z,40.21
2022-11-05T12:44:55.466Z,42.33
2022-11-05T12:47:27.569Z,45.11
2022-11-05T12:50:12.641Z,45.88
2022-11-05T12:52:45.272Z,44.16
2022-11-05T12:55:25.409Z,46.23
2022-11-05T12:57:55.110Z,40.50
2022-11-05T13:00:25.969Z,40.60
2022-11-05T13:03:20.287Z,41.67
2022-11-05T13:05:55.440Z,44.29
2022-11-05T13:08:28.106Z,46.33
2022-11-05T13:11:06.746Z,40.90
2022-11-05T13:14:00.199Z,42.58
2022-11-05T13:16:36.913Z,47.56
2022-11-05T13:19:22.671Z,41.62
2022-11-05T13:21:57.731Z,44.84
2022-11-05T13:24:39.199Z,45.70
2022-11-05T13:27:21.159Z,46.05
2022-11-05T13:29:56.079Z,44.32
2022-11-05T13:32:36.461Z,41.75
2022-11-05T13:35:07.233Z,45.95
2022-11-05T13:38:01.285Z,43.03
2022-11-05T13:41:06.449Z,45.44
2022-11-05T13:44:06.884Z,39.96
2022-11-05T13:46:56.985Z,42.57
2022-11-05T13:49:51.331Z,44.40
2022-11-05T13:52:27.115Z,44.65
2022-11-05T13:55:14.589Z,47.83
2022-11-05T13:58:02.658Z,45.19
2022-11-05T14:00:40.400Z,47.04
2022-11-05T14:03:18.668Z,42.64
2022-11-05T14:05:53.707Z,47.93
2022-11-05T14:08:26.899Z,48.34
2022-11-05T14:11:05.807Z,45.36
2022-11-05T14:13:46.361Z,42.69
2022-11-05T14:16:23.413Z,48.54
2022-11-05T14:19:19.825Z,42.39
2022-11-05T14:21:52.061Z,47.90
2022-11-05T14:24:30.150Z,47.12
2022-11-05T14:27:03.327Z,46.32
2022-11-05T14:29:42.300Z,42.78
2022-11-05T14:32:20.996Z,43.12
2022-11-05T14:35:05.288Z,48.08
2022-11-05T14:37:53.285Z,42.79
2022-11-05T14:40:33.865Z,46.58
2022-11-05T14:43:18.423Z,43.67
2022-11-05T14:46:03.595Z,43.55
2022-11-05T14:48:44.547Z,48.68
2022-11-05T14:51:29.657Z,42.64
2022-11-05T14:54:19.637Z,44.26
2022-11-05T14:56:56.661Z,47.29
2022-11-05T14:59:31.749Z,47.42
2022-11-05T15:02:13.285Z,44.36
2022-11-05T15:04:52.973Z,42.46
2022-11-05T15:07:28.646Z,49.33
2022-11-05T15:10:12.309Z,44.04
2022-11-05T15:12:50.765Z,45.06
2022-11-05T15:15:30.159Z,45.20
2022-11-05T15:18:12.947Z,49.99
2022-11-05T15:20:43.706Z,43.44
2022-11-05T15:23:20.880Z,45.22
2022-11-05T15:26:06.424Z,44.44
2022-11-05T15:28:42.304Z,46.31
2022-11-05T15:31:17.697Z,44.67
2022-11-05T15:33:53.784Z,44.33
2022-11-05T15:36:29.665Z,44.40
2022-11-05T15:39:28.926Z,42.67
2022-11-05T15:42:13.170Z,43.34
2022-11-05T15:44:54.351Z,45.32
2022-11-05T15:47:24.302Z,42.80
2022-11-05T15:49:56.771Z,42.32
2022-11-05T15:52:33.669Z,44.34
2022-11-05T15:55:13.043Z,44.74
2022-11-05T15:57:50.397Z,49.18
2022-11-05T16:00:25.385Z,44.67
2022-11-05T16:03:04.826Z,45.60
2022-11-05T16:05:35.556Z,45.86
2022-11-05T16:08:06.164Z,46.78
2022-11-05T16:10:36.991Z,46.07
2022-11-05T16:13:30.846Z,47.18
2022-11-05T16:16:00.968Z,47.43
2022-11-05T16:18:34.492Z,47.33
2022-11-05T16:21:10.630Z,45.93
2022-11-05T16:23:42.096Z,47.46
2022-11-05T16:27:01.899Z,48.26
2022-11-05T16:29:33.726Z,49.03
2022-11-05T16:32:17.299Z,49.53
2022-11-05T16:35:01.025Z,48.82
2022-11-05T16:37:40.119Z,48.84
2022-11-05T16:40:24.440Z,48.61
2022-11-05T16:42:55.607Z,49.13
2022-11-05T16:45:24.981Z,48.99
2022-11-05T16:47:54.769Z,49.90
2022-11-05T16:50:29.463Z,49.13
2022-11-05T16:52:56.531Z,48.91
2022-11-05T16:55:26.328Z,49.56
2022-11-05T16:57:55.747Z,50.11
2022-11-05T17:03:04.539Z,50.32
2022-11-05T17:05:31.772Z,51.56
2022-11-05T17:08:06.276Z,51.57
2022-11-05T17:10:33.174Z,52.06
2022-11-05T17:13:02.834Z,52.40
2022-11-05T17:15:35.603Z,52.50
2022-11-05T17:18:05.693Z,52.84
2022-11-05T17:20:41.080Z,53.22
2022-11-05T17:23:18.901Z,53.41
2022-11-05T17:25:57.821Z,53.68
2022-11-05T17:28:30.908Z,54.69
2022-11-05T17:31:16.388Z,54.49
2022-11-05T17:33:56.704Z,55.14
2022-11-05T17:36:27.893Z,55.42
2022-11-05T17:38:54.917Z,55.05
2022-11-05T17:41:26.383Z,55.32
2022-11-05T17:44:00.447Z,55.31
2022-11-05T17:46:27.240Z,54.70
2022-11-05T17:48:54.409Z,54.56
2022-11-05T17:51:21.640Z,55.15
2022-11-05T17:53:51.148Z,55.64
2022-11-05T17:56:30.582Z,56.14
2022-11-05T17:59:04.766Z,55.95
2022-11-05T18:01:35.612Z,56.10
2022-11-05T18:04:09.058Z,56.40
2022-11-05T18:06:45.450Z,56.71
2022-11-05T18:09:16.346Z,57.07
2022-11-05T18:11:43.602Z,56.85
2022-11-05T18:14:10.675Z,56.79
2022-11-05T18:16:37.538Z,56.44
2022-11-05T18:19:05.306Z,56.80
2022-11-05T18:21:35.589Z,56.40
2022-11-05T18:24:04.342Z,56.52
2022-11-05T18:26:31.330Z,57.02
2022-11-05T18:29:00.574Z,57.41
2022-11-05T18:31:27.771Z,58.16
2022-11-05T18:33:59.234Z,58.18
2022-11-05T18:36:28.972Z,57.87
2022-11-05T18:38:58.332Z,58.04
2022-11-05T18:41:27.745Z,57.71
2022-11-05T18:44:00.429Z,58.12
2022-11-05T18:46:57.210Z,58.57
2022-11-05T18:49:27.030Z,59.96
2022-11-05T18:52:00.138Z,58.03
2022-11-05T18:54:28.788Z,55.76
2022-11-05T18:56:58.471Z,58.26
2022-11-05T18:59:40.696Z,58.60
2022-11-05T19:02:08.886Z,58.24
2022-11-05T19:05:07.050Z,52.83
2022-11-05T19:07:43.841Z,55.04
2022-11-05T19:10:21.053Z,57.93
2022-11-05T19:12:48.026Z,58.87
2022-11-05T19:15:18.255Z,55.57
2022-11-05T19:17:45.673Z,53.11
2022-11-05T19:20:14.033Z,56.40
2022-11-05T19:22:41.399Z,54.68
2022-11-05T19:25:09.247Z,54.28
2022-11-05T19:27:39.991Z,55.42
2022-11-05T19:30:07.348Z,57.06
2022-11-05T19:32:36.093Z,57.02
2022-11-05T19:35:04.631Z,57.62
2022-11-05T19:37:34.284Z,58.83
2022-11-05T19:40:08.442Z,58.95
2022-11-05T19:42:36.292Z,58.98
2022-11-05T19:45:30.414Z,57.11
2022-11-05T19:47:50.961Z,58.97
2022-11-05T19:50:21.078Z,59.00
2022-11-05T19:52:51.280Z,59.39
2022-11-05T19:55:28.783Z,60.47
2022-11-05T19:57:58.585Z,61.14
2022-11-05T20:00:28.066Z,59.67
2022-11-05T20:02:58.872Z,61.15
2022-11-05T20:05:31.215Z,61.64
2022-11-05T20:07:57.905Z,62.13
2022-11-05T20:10:27.154Z,59.23
2022-11-05T20:13:06.745Z,57.78
2022-11-05T20:15:42.943Z,57.87
2022-11-05T20:18:28.675Z,57.78
2022-11-05T20:21:11.922Z,58.16
2022-11-05T20:23:38.764Z,58.51
2022-11-05T20:26:08.356Z,59.73
2022-11-05T20:28:42.184Z,60.25
2022-11-05T20:31:16.679Z,60.71
2022-11-05T20:33:51.627Z,61.51
2022-11-05T20:36:26.331Z,62.00
2022-11-05T20:39:08.018Z,62.67
2022-11-05T20:41:35.014Z,61.18
2022-11-05T20:44:01.796Z,60.58
2022-11-05T20:46:29.685Z,61.03
2022-11-05T20:48:59.874Z,60.84
2022-11-05T20:51:28.443Z,61.82
2022-11-05T20:54:01.420Z,62.28
2022-11-05T20:56:37.251Z,60.92
2022-11-05T20:59:07.160Z,60.75
2022-11-05T21:01:34.834Z,61.09
2022-11-05T21:04:05.148Z,61.65
2022-11-05T21:06:37.784Z,61.98
2022-11-05T21:09:07.973Z,62.94
2022-11-05T21:11:57.581Z,62.93
2022-11-05T21:14:25.018Z,62.81
2022-11-05T21:16:53.765Z,62.14
2022-11-05T21:19:21.444Z,59.42
2022-11-05T21:21:50.336Z,61.03
2022-11-05T21:24:25.445Z,61.18
2022-11-05T21:26:56.888Z,61.86
2022-11-05T21:29:25.568Z,62.73
2022-11-05T21:31:54.804Z,62.58
2022-11-05T21:34:21.503Z,61.65
2022-11-05T21:36:53.312Z,62.72
2022-11-05T21:39:20.007Z,62.44
2022-11-05T21:41:59.988Z,61.69
2022-11-05T21:44:41.749Z,62.09
2022-11-05T21:47:13.887Z,62.22
2022-11-05T21:49:50.379Z,62.89
2022-11-05T21:52:40.778Z,62.67
2022-11-05T21:55:29.166Z,62.59
2022-11-05T21:58:23.098Z,63.21
2022-11-05T22:00:52.515Z,63.03
2022-11-05T22:03:23.088Z,62.81
2022-11-05T22:05:50.380Z,62.73
2022-11-05T22:08:17.207Z,63.28
2022-11-05T22:10:44.652Z,63.33
2022-11-05T22:13:20.016Z,63.45
2022-11-05T22:15:56.929Z,63.88
2022-11-05T22:18:34.302Z,63.55
2022-11-05T22:21:01.178Z,63.67
2022-11-05T22:23:28.207Z,62.98
2022-11-05T22:26:03.821Z,63.35
2022-11-05T22:28:33.661Z,63.68
2022-11-05T22:31:00.769Z,64.45
2022-11-05T22:33:34.427Z,64.66
2022-11-05T22:36:17.647Z,64.69
2022-11-05T22:38:46.204Z,65.59
2022-11-05T22:41:19.038Z,64.75
2022-11-05T22:43:53.458Z,65.29
2022-11-05T22:46:34.948Z,65.18
2022-11-05T22:49:06.785Z,65.00
2022-11-05T22:51:49.720Z,64.88
2022-11-05T22:54:21.052Z,63.94
2022-11-05T22:56:50.259Z,64.97
2022-11-05T22:59:16.928Z,65.65
2022-11-05T23:01:45.822Z,65.93
2022-11-05T23:04:19.271Z,66.13
2022-11-05T23:07:04.581Z,65.54
2022-11-05T23:09:53.933Z,65.57
2022-11-05T23:12:30.173Z,66.24
2022-11-05T23:14:58.590Z,65.97
2022-11-05T23:17:44.555Z,66.11
2022-11-05T23:20:33.544Z,66.75
2022-11-05T23:23:20.549Z,66.35
2022-11-05T23:25:47.490Z,66.62
2022-11-05T23:28:23.603Z,65.86
2022-11-05T23:31:10.438Z,65.96
2022-11-05T23:33:39.994Z,66.86
2022-11-05T23:36:26.392Z,66.94
2022-11-05T23:38:56.071Z,66.86
2022-11-05T23:41:41.660Z,66.84
2022-11-05T23:44:27.704Z,66.32
2022-11-05T23:47:13.212Z,66.38
2022-11-05T23:49:39.848Z,65.91
2022-11-05T23:52:06.591Z,66.61
2022-11-05T23:54:36.327Z,66.71
2022-11-05T23:57:06.400Z,66.39
2022-11-05T23:59:36.641Z,66.42
